Time;durP1;ratioP1;P1;durP2;ratioP2;P2;SDS_P1;SDS_P2;PMS_P1;PMS_P2;Temp;Humidity;BMP_temperature;BMP_pressure;BME280_temperature;BME280_humidity;BME280_pressure;Samples;Min_cycle;Max_cycle;Signal;HPM_P1;HPM_P2
2022/05/27 04:41:23;;;;;;;;;;;;;;;18.87;55.58;97585.03;4253234;27;10355;-64
2022/05/27 04:43:26;;;;;;;;;;;;;;;19.12;55.26;97592.91;4243327;27;5751;-67
2022/05/27 04:45:29;;;;;;;;;;;;;;;19.32;55.06;97592.63;4237916;27;6757;-63
2022/05/27 04:47:32;;;;;;;;;;;;;;;19.49;54.90;97596.31;4224876;27;5870;-64
2022/05/27 04:49:58;;;;;;;;;;;;;;;19.61;54.86;97591.81;4239664;27;5728;-64
2022/05/27 04:52:02;;;;;;;;;;;;;;;19.75;54.55;97597.78;4241629;27;6435;-64
2022/05/27 04:54:05;;;;;;;;;;;;;;;19.85;54.42;97583.78;4243740;27;5649;-65
2022/05/27 04:56:09;;;;;;;;;;;;;;;19.93;54.49;97583.41;4248542;27;5636;-65
2022/05/27 04:58:13;;;;;;;;;;;;;;;20.02;54.33;97588.19;4248770;27;5736;-64
2022/05/27 05:00:19;;;;;;;;;;;;;;;20.10;54.26;97583.53;4230108;28;5750;-65
2022/05/27 05:02:23;;;;;;;;;;;;;;;20.17;54.23;97589.63;4246990;27;5608;-64
2022/05/27 05:04:26;;;;;;;;;;;;;;;20.24;54.15;97584.91;4245139;27;5700;-65
2022/05/27 05:06:29;;;;;;;;;;;;;;;20.28;53.71;97597.66;4236277;27;5715;-65
2022/05/27 05:08:34;;;;;;;;;;;;;;;20.30;54.02;97590.19;4228612;28;5719;-64
2022/05/27 05:10:37;;;;;;;;;;;;;;;20.36;53.64;97589.22;4229761;27;6415;-65
2022/05/27 05:12:40;;;;;;;;;;;;;;;20.42;53.92;97589.34;4245533;27;5731;-64
2022/05/27 05:14:44;;;;;;;;;;;;;;;20.47;53.77;97594.84;4235418;27;5832;-64
2022/05/27 05:16:47;;;;;;;;;;;;;;;20.52;53.52;97597.66;4240674;27;5617;-66
2022/05/27 05:18:50;;;;;;;;;;;;;;;20.56;53.48;97590.75;4228711;28;5722;-65
2022/05/27 05:20:53;;;;;;;;;;;;;;;20.60;53.31;97589.19;4228708;28;5730;-65
2022/05/27 05:22:56;;;;;;;;;;;;;;;20.64;53.34;97593.06;4229671;27;5747;-64
2022/05/27 05:24:59;;;;;;;;;;;;;;;20.67;53.39;97592.56;4212148;28;5814;-65
2022/05/27 05:27:03;;;;;;;;;;;;;;;20.72;53.24;97581.09;4244798;27;5712;-64
2022/05/27 05:29:06;;;;;;;;;;;;;;;20.77;52.88;97587.41;4245398;27;5699;-64
2022/05/27 05:31:16;;;;;;;;;;;;;;;20.85;53.09;97589.72;4242955;27;5624;-64
2022/05/27 05:33:19;;;;;;;;;;;;;;;20.92;52.79;97586.88;4242648;27;5815;-65
2022/05/27 05:35:22;;;;;;;;;;;;;;;21.05;52.36;97591.16;4225010;28;5778;-65
2022/05/27 05:37:28;;;;;;;;;;;;;;;21.19;52.19;97582.56;4245489;27;5714;-65
2022/05/27 05:39:31;;;;;;;;;;;;;;;21.29;52.16;97581.13;4245184;27;5617;-65
2022/05/27 05:41:36;;;;;;;;;;;;;;;21.38;52.15;97583.19;4238138;27;5699;-65
2022/05/27 05:43:39;;;;;;;;;;;;;;;21.48;51.75;97577.97;4233698;28;5809;-65
2022/05/27 05:45:42;;;;;;;;;;;;;;;21.66;51.42;97587.69;4232849;28;5696;-63
2022/05/27 05:47:46;;;;;;;;;;;;;;;21.80;51.51;97572.84;4232312;28;6314;-65
2022/05/27 05:49:49;;;;;;;;;;;;;;;21.90;51.10;97572.19;4234055;28;5083;-65
2022/05/27 05:51:53;;;;;;;;;;;;;;;22.07;50.79;97575.69;4233976;28;5805;-64
2022/05/27 05:53:56;;;;;;;;;;;;;;;22.25;50.66;97584.56;4233909;28;5704;-65
2022/05/27 05:55:59;;;;;;;;;;;;;;;22.28;50.79;97573.28;4233959;28;5777;-64
2022/05/27 05:58:04;;;;;;;;;;;;;;;22.27;50.88;97577.03;4233874;28;5778;-66
2022/05/27 06:00:08;;;;;;;;;;;;;;;22.27;50.57;97577.84;4233751;28;5715;-65
2022/05/27 06:02:11;;;;;;;;;;;;;;;22.31;50.59;97579.00;4215117;28;6563;-65
2022/05/27 06:04:16;;;;;;;;;;;;;;;22.44;50.44;97583.22;4233696;28;5703;-65
2022/05/27 06:06:19;;;;;;;;;;;;;;;22.57;49.87;97577.44;4229203;28;5730;-65
2022/05/27 06:08:22;;;;;;;;;;;;;;;22.69;49.84;97589.97;4225983;28;5786;-64
2022/05/27 06:10:25;;;;;;;;;;;;;;;22.80;49.77;97583.66;4222534;28;5778;-65
2022/05/27 06:12:28;;;;;;;;;;;;;;;22.88;49.68;97583.25;4216519;28;5710;-65
2022/05/27 06:14:31;;;;;;;;;;;;;;;22.93;49.45;97578.72;4216632;28;6201;-65
2022/05/27 06:16:35;;;;;;;;;;;;;;;22.93;49.39;97585.97;4198001;28;5803;-65
2022/05/27 06:18:38;;;;;;;;;;;;;;;23.02;49.34;97589.88;4216511;28;5735;-65
2022/05/27 06:20:42;;;;;;;;;;;;;;;23.14;48.73;97606.72;4216499;28;5707;-65
2022/05/27 06:22:45;;;;;;;;;;;;;;;23.22;48.82;97600.88;4216511;28;5706;-65
2022/05/27 06:24:58;;;;;;;;;;;;;;;23.24;48.58;97606.81;4216706;28;5685;-64
2022/05/27 06:27:05;;;;;;;;;;;;;;;23.24;48.77;97609.50;4216578;28;5722;-65
2022/05/27 06:36:11;;;;;;;;;;;;;;;23.09;48.58;97595.84;4180607;28;5776;-64
2022/05/27 06:38:14;;;;;;;;;;;;;;;23.06;48.83;97601.75;4179987;28;5811;-65
2022/05/27 06:40:18;;;;;;;;;;;;;;;23.05;48.90;97594.75;4174013;28;5118;-65
2022/05/27 06:42:22;;;;;;;;;;;;;;;23.06;48.45;97596.38;4163800;28;5851;-65
2022/05/27 06:44:41;;;;;;;;;;;;;;;23.08;48.28;97596.91;4180756;28;6550;-65
2022/05/27 06:46:44;;;;;;;;;;;;;;;23.12;48.16;97597.25;4180259;28;5772;-66
2022/05/27 06:48:47;;;;;;;;;;;;;;;23.12;48.19;97595.38;4180373;28;5793;-65
2022/05/27 06:50:50;;;;;;;;;;;;;;;23.12;48.04;97595.38;4180393;28;5906;-65
2022/05/27 06:52:54;;;;;;;;;;;;;;;23.12;48.39;97589.16;4178585;28;5856;-65
2022/05/27 06:54:57;;;;;;;;;;;;;;;23.12;48.08;97594.56;4180435;28;5805;-65
2022/05/27 06:57:02;;;;;;;;;;;;;;;23.12;48.24;97595.38;4180444;28;5757;-65
2022/05/27 06:59:05;;;;;;;;;;;;;;;23.10;47.99;97592.09;4180079;28;5757;-65
2022/05/27 07:01:08;;;;;;;;;;;;;;;23.07;47.82;97589.91;4179958;28;6215;-65
2022/05/27 07:03:11;;;;;;;;;;;;;;;23.05;47.77;97581.25;4163402;28;5804;-65
2022/05/27 07:05:15;;;;;;;;;;;;;;;22.98;48.06;97586.03;4173109;28;5797;-65
2022/05/27 07:07:18;;;;;;;;;;;;;;;22.94;47.68;97582.22;4163664;28;5776;-65
2022/05/27 07:09:24;;;;;;;;;;;;;;;22.90;48.03;97584.63;4197833;28;5702;-65
2022/05/27 07:11:27;;;;;;;;;;;;;;;22.86;48.02;97583.47;4197500;28;7229;-65
2022/05/27 07:13:30;;;;;;;;;;;;;;;22.83;48.07;97583.97;4215686;28;5714;-65
2022/05/27 07:15:33;;;;;;;;;;;;;;;22.79;47.58;97580.13;4215554;28;5714;-65
2022/05/27 07:17:36;;;;;;;;;;;;;;;22.76;47.63;97577.94;4215770;28;5714;-65
2022/05/27 07:19:41;;;;;;;;;;;;;;;22.75;47.99;97588.97;4224488;28;6454;-65
2022/05/27 07:21:45;;;;;;;;;;;;;;;22.72;47.87;97576.81;4232874;28;5624;-65
2022/05/27 07:23:48;;;;;;;;;;;;;;;22.72;47.97;97573.31;4232461;28;5709;-65
2022/05/27 07:25:54;;;;;;;;;;;;;;;22.69;47.53;97577.31;4232435;28;5711;-65
2022/05/27 07:27:56;;;;;;;;;;;;;;;22.67;47.94;97566.78;4232687;28;5795;-65
2022/05/27 07:29:59;;;;;;;;;;;;;;;22.63;47.94;97567.53;4232270;28;5700;-65
2022/05/27 07:32:03;;;;;;;;;;;;;;;22.59;47.57;97569.94;4230710;28;5687;-66
2022/05/27 07:34:06;;;;;;;;;;;;;;;22.53;47.66;97568.22;4218905;28;5734;-65
2022/05/27 07:36:09;;;;;;;;;;;;;;;22.50;48.16;97565.22;4227560;28;5761;-65
2022/05/27 07:38:12;;;;;;;;;;;;;;;22.46;47.74;97564.91;4205991;28;5797;-65
2022/05/27 07:40:15;;;;;;;;;;;;;;;22.41;48.13;97567.53;4231922;28;5087;-65
2022/05/27 07:42:22;;;;;;;;;;;;;;;22.38;47.74;97578.81;4232020;28;5869;-65
2022/05/27 07:44:25;;;;;;;;;;;;;;;22.36;48.27;97575.56;4232253;28;5987;-65
2022/05/27 07:46:31;;;;;;;;;;;;;;;22.33;48.16;97578.75;4231790;28;5689;-65
2022/05/27 07:48:33;;;;;;;;;;;;;;;22.32;48.38;97574.44;4232145;28;5695;-66
2022/05/27 07:50:37;;;;;;;;;;;;;;;22.30;48.16;97566.56;4231947;28;5691;-65
2022/05/27 07:52:42;;;;;;;;;;;;;;;22.28;48.01;97573.28;4231725;28;6393;-65
2022/05/27 07:54:45;;;;;;;;;;;;;;;22.24;48.26;97566.78;4232062;28;5711;-65
2022/05/27 07:56:57;;;;;;;;;;;;;;;22.17;48.24;97566.13;4218485;28;5746;-65
2022/05/27 07:59:01;;;;;;;;;;;;;;;22.15;48.64;97568.25;4215150;28;5702;-65
2022/05/27 08:01:05;;;;;;;;;;;;;;;22.17;48.67;97571.50;4214883;28;5716;-65
2022/05/27 08:03:08;;;;;;;;;;;;;;;22.16;48.49;97570.69;4214857;28;5762;-65
2022/05/27 08:05:13;;;;;;;;;;;;;;;22.19;48.64;97572.06;4214817;28;5112;-66
2022/05/27 08:07:17;;;;;;;;;;;;;;;22.20;48.31;97565.63;4214992;28;5705;-65
2022/05/27 08:09:20;;;;;;;;;;;;;;;22.20;48.32;97560.25;4214907;28;6460;-65
2022/05/27 08:11:24;;;;;;;;;;;;;;;22.20;48.49;97565.63;4214872;28;5718;-65
2022/05/27 08:13:27;;;;;;;;;;;;;;;22.20;48.88;97554.84;4214890;28;5924;-65
2022/05/27 08:15:32;;;;;;;;;;;;;;;22.20;48.39;97558.38;4214048;28;7671;-66
2022/05/27 08:17:35;;;;;;;;;;;;;;;22.21;48.67;97554.63;4214689;28;5707;-65
2022/05/27 08:19:38;;;;;;;;;;;;;;;22.21;48.62;97551.13;4215125;28;5766;-65
2022/05/27 08:21:43;;;;;;;;;;;;;;;22.21;48.71;97551.13;4214685;28;5698;-65
2022/05/27 08:23:47;;;;;;;;;;;;;;;22.22;48.79;97542.78;4214170;28;5769;-65
2022/05/27 08:25:55;;;;;;;;;;;;;;;22.21;48.66;97551.13;4214696;28;5754;-65
2022/05/27 08:27:58;;;;;;;;;;;;;;;22.19;48.76;97545.97;4214641;28;5742;-65
2022/05/27 08:30:01;;;;;;;;;;;;;;;22.19;48.87;97543.28;4214658;28;5710;-65
2022/05/27 08:32:07;;;;;;;;;;;;;;;22.20;48.95;97552.16;4218343;27;5692;-65
2022/05/27 08:38:52;;;;;;;;;;;;;;;22.19;49.47;97547.84;4231796;28;5699;-65
2022/05/27 08:41:32;;;;;;;;;;;;;;;22.17;49.47;97547.28;4231105;28;5844;-65
2022/05/27 08:43:44;;;;;;;;;;;;;;;22.16;49.48;97542.97;4211340;28;6506;-65
2022/05/27 08:45:57;;;;;;;;;;;;;;;22.17;49.11;97537.31;4210741;28;5801;-65
2022/05/27 08:48:06;;;;;;;;;;;;;;;22.18;49.50;97535.44;4221726;28;5698;-65
2022/05/27 08:50:14;;;;;;;;;;;;;;;22.17;49.27;97533.81;4230239;28;5743;-65
2022/05/27 08:52:22;;;;;;;;;;;;;;;22.18;49.29;97530.06;4231466;28;5707;-65
2022/05/27 08:54:29;;;;;;;;;;;;;;;22.19;49.40;97532.50;4231420;28;6388;-65
2022/05/27 09:01:21;;;;;;;;;;;;;;;22.23;49.28;97527.44;4219061;28;5766;-66
2022/05/27 09:03:31;;;;;;;;;;;;;;;22.24;49.66;97531.75;4226513;28;5690;-66
2022/05/27 09:05:40;;;;;;;;;;;;;;;22.24;49.61;97529.06;4231366;28;5727;-66
2022/05/27 09:07:48;;;;;;;;;;;;;;;22.23;49.50;97528.25;4231418;28;5712;-65
2022/05/27 09:09:52;;;;;;;;;;;;;;;22.23;49.61;97528.25;4231038;28;5696;-65
2022/05/27 09:12:11;;;;;;;;;;;;;;;22.25;49.59;97522.63;4231054;28;5703;-65
2022/05/27 09:14:16;;;;;;;;;;;;;;;22.27;49.50;97525.88;4230742;28;5785;-65
2022/05/27 09:16:26;;;;;;;;;;;;;;;22.29;49.21;97521.03;4213413;28;5790;-65
2022/05/27 09:18:39;;;;;;;;;;;;;;;22.30;49.48;97517.28;4234832;28;5800;-66
2022/05/27 09:20:54;;;;;;;;;;;;;;;22.30;49.34;97517.28;4226530;28;7713;-65
2022/05/27 09:23:05;;;;;;;;;;;;;;;22.28;49.23;97520.22;4232321;28;5688;-65
2022/05/27 09:25:19;;;;;;;;;;;;;;;22.29;49.15;97523.72;4220328;28;5642;-65
2022/05/27 09:27:27;;;;;;;;;;;;;;;22.30;49.14;97517.28;4234279;28;5672;-65
2022/05/27 09:29:45;;;;;;;;;;;;;;;22.30;49.40;97517.28;4217714;28;5686;-65
2022/05/27 09:31:52;;;;;;;;;;;;;;;22.31;49.51;97524.28;4229218;28;5612;-65
2022/05/27 09:33:58;;;;;;;;;;;;;;;22.35;49.53;97520.06;4236194;28;5601;-66
2022/05/27 09:36:06;;;;;;;;;;;;;;;22.33;49.12;97514.13;4236866;28;5718;-65
2022/05/27 09:38:15;;;;;;;;;;;;;;;22.34;49.28;97513.03;4236764;28;5772;-65
2022/05/27 09:40:23;;;;;;;;;;;;;;;22.37;49.27;97512.53;4234991;28;6243;-65
2022/05/27 09:42:32;;;;;;;;;;;;;;;22.38;49.48;97508.78;4236266;28;5584;-65
2022/05/27 09:44:39;;;;;;;;;;;;;;;22.39;48.93;97518.47;4236855;28;5608;-65
2022/05/27 09:46:42;;;;;;;;;;;;;;;22.38;49.00;97512.28;4218223;28;5754;-65
2022/05/27 09:48:45;;;;;;;;;;;;;;;22.41;49.18;97518.22;4236613;28;5721;-65
2022/05/27 09:50:50;;;;;;;;;;;;;;;22.41;48.94;97520.91;4236577;28;5717;-65
2022/05/27 09:52:56;;;;;;;;;;;;;;;22.40;48.96;97525.50;4236635;28;5612;-65
2022/05/27 09:55:13;;;;;;;;;;;;;;;22.40;49.27;97524.69;4236618;28;6402;-65
2022/05/27 09:57:22;;;;;;;;;;;;;;;22.39;48.81;97526.56;4236800;28;5609;-65
2022/05/27 09:59:28;;;;;;;;;;;;;;;22.39;49.10;97521.16;4236631;28;5604;-64
2022/05/27 10:01:32;;;;;;;;;;;;;;;22.41;48.82;97529.81;4236411;28;5601;-65
2022/05/27 10:03:37;;;;;;;;;;;;;;;22.41;48.94;97527.13;4218451;28;5671;-64
2022/05/27 10:05:40;;;;;;;;;;;;;;;22.43;48.51;97511.53;4236518;28;5675;-65
2022/05/27 10:07:52;;;;;;;;;;;;;;;22.47;48.63;97517.22;4236509;28;5620;-65
2022/05/27 10:09:56;;;;;;;;;;;;;;;22.48;48.80;97516.97;4236400;28;5632;-65
2022/05/27 10:12:00;;;;;;;;;;;;;;;22.49;48.86;97507.81;4236147;28;5699;-65
2022/05/27 10:14:14;;;;;;;;;;;;;;;22.49;48.63;97510.53;4218004;28;5671;-64
2022/05/27 10:16:25;;;;;;;;;;;;;;;22.50;48.59;97500.56;4236188;28;5617;-64
2022/05/27 10:18:28;;;;;;;;;;;;;;;22.50;48.55;97500.56;4236375;28;6290;-64
2022/05/27 10:20:34;;;;;;;;;;;;;;;22.51;48.34;97492.22;4236592;28;5648;-65
2022/05/27 10:22:37;;;;;;;;;;;;;;;22.51;48.22;97489.53;4236339;28;5639;-65
2022/05/27 10:24:44;;;;;;;;;;;;;;;22.51;48.13;97489.53;4236295;28;5727;-65
2022/05/27 10:27:01;;;;;;;;;;;;;;;22.54;48.43;97485.53;4236362;28;5613;-65
2022/05/27 10:29:08;;;;;;;;;;;;;;;22.55;48.16;97481.78;4235950;28;5620;-65
2022/05/27 10:31:17;;;;;;;;;;;;;;;22.56;48.52;97478.81;4235688;28;5607;-65
2022/05/27 10:33:22;;;;;;;;;;;;;;;22.59;48.18;97478.31;4204469;28;5688;-65
2022/05/27 10:35:33;;;;;;;;;;;;;;;22.63;48.46;97481.28;4219298;28;5713;-65
2022/05/27 10:38:07;;;;;;;;;;;;;;;22.62;48.44;97474.28;4219218;28;5709;-65
2022/05/27 10:40:24;;;;;;;;;;;;;;;22.60;48.42;97477.22;4225543;28;6361;-65
2022/05/27 10:42:37;;;;;;;;;;;;;;;22.62;48.15;97474.28;4234479;28;5620;-65
2022/05/27 10:44:55;;;;;;;;;;;;;;;22.64;48.07;97475.66;4231904;28;6262;-65
2022/05/27 10:47:00;;;;;;;;;;;;;;;22.64;48.37;97478.34;4222124;28;5696;-65
2022/05/27 10:49:18;;;;;;;;;;;;;;;22.63;48.58;97463.25;4228863;28;5692;-65
2022/05/27 10:51:34;;;;;;;;;;;;;;;22.65;48.60;97465.69;4216193;28;5782;-65
2022/05/27 10:53:56;;;;;;;;;;;;;;;22.70;48.24;97462.25;4231728;28;6860;-65
2022/05/27 10:56:11;;;;;;;;;;;;;;;22.71;48.18;97464.69;4223891;28;6151;-65
2022/05/27 11:03:54;;;;;;;;;;;;;;;22.71;48.07;97451.22;4225350;28;5703;-64
2022/05/27 11:06:19;;;;;;;;;;;;;;;22.71;48.06;97442.31;4216335;28;5703;-65
2022/05/27 11:08:26;;;;;;;;;;;;;;;22.71;48.46;97439.63;4227226;28;5692;-65
2022/05/27 11:10:39;;;;;;;;;;;;;;;22.73;48.14;97440.97;4232597;28;5612;-64
2022/05/27 11:15:35;;;;;;;;;;;;;;;22.75;48.46;97430.75;4197473;28;5807;-65
2022/05/27 11:17:58;;;;;;;;;;;;;;;22.77;48.45;97435.91;4215445;28;5736;-65
2022/05/27 11:20:15;;;;;;;;;;;;;;;22.76;48.07;97428.88;4215498;28;5773;-65
2022/05/27 11:22:28;;;;;;;;;;;;;;;22.75;48.09;97430.75;4215638;28;5800;-65
2022/05/27 11:25:00;;;;;;;;;;;;;;;22.78;48.23;97432.16;4215481;28;5706;-65
2022/05/27 11:27:13;;;;;;;;;;;;;;;22.82;48.45;97430.56;4215538;28;6309;-64
2022/05/27 11:29:44;;;;;;;;;;;;;;;22.86;48.13;97426.28;4215712;28;5729;-65
2022/05/27 11:31:58;;;;;;;;;;;;;;;22.90;47.94;97430.13;4222205;28;5755;-64
2022/05/27 11:34:13;;;;;;;;;;;;;;;22.92;48.39;97427.97;4231791;28;5708;-65
2022/05/27 11:36:37;;;;;;;;;;;;;;;22.94;48.29;97431.22;4232065;28;5824;-65
2022/05/27 11:39:10;;;;;;;;;;;;;;;22.97;48.12;97422.63;4212622;28;5778;-65
2022/05/27 11:41:20;;;;;;;;;;;;;;;23.01;48.40;97414.84;4230233;28;5692;-65
2022/05/27 11:43:48;;;;;;;;;;;;;;;23.03;48.34;97408.13;4232104;28;5715;-65
2022/05/27 11:46:12;;;;;;;;;;;;;;;23.06;48.29;97407.59;4209141;28;5784;-65
2022/05/27 11:48:21;;;;;;;;;;;;;;;23.07;48.08;97406.53;4213523;28;5902;-65
2022/05/27 11:51:00;;;;;;;;;;;;;;;23.10;48.04;97402.50;4231655;28;6487;-65
2022/05/27 11:53:16;;;;;;;;;;;;;;;23.12;47.59;97405.78;4215242;28;5766;-65
2022/05/27 11:55:57;;;;;;;;;;;;;;;23.15;47.91;97391.75;4215386;28;5722;-65
2022/05/27 11:58:13;;;;;;;;;;;;;;;23.17;47.69;97389.63;4196801;28;5714;-65
2022/05/27 12:00:19;;;;;;;;;;;;;;;23.17;47.25;97387.72;4215073;28;5714;-65
2022/05/27 12:02:36;;;;;;;;;;;;;;;23.19;47.25;97387.47;4214801;28;5770;-65
2022/05/27 12:04:43;;;;;;;;;;;;;;;23.20;47.16;97383.69;4214928;28;5126;-65
2022/05/27 12:06:53;;;;;;;;;;;;;;;23.22;47.07;97382.38;4230155;28;5726;-65
2022/05/27 12:09:01;;;;;;;;;;;;;;;23.24;47.06;97388.31;4215042;28;5690;-65
2022/05/27 12:11:11;;;;;;;;;;;;;;;23.26;47.09;97379.16;4226572;28;5692;-65
2022/05/27 12:13:25;;;;;;;;;;;;;;;23.27;46.60;97378.91;4231276;28;5706;-65
2022/05/27 12:15:34;;;;;;;;;;;;;;;23.28;46.59;97382.41;4231303;28;5727;-65
2022/05/27 12:17:43;;;;;;;;;;;;;;;23.29;46.85;97374.03;4229010;28;5711;-65
2022/05/27 12:19:56;;;;;;;;;;;;;;;23.30;46.62;97377.56;4229795;28;5706;-65
2022/05/27 12:22:00;;;;;;;;;;;;;;;;;;4231615;28;5720;-65
2022/05/27 12:24:11;;;;;;;;;;;;;;;23.35;46.03;97372.22;4212908;28;5856;-65
2022/05/27 12:26:15;;;;;;;;;;;;;;;23.38;46.08;97377.06;4231683;28;5707;-65
2022/05/27 12:28:24;;;;;;;;;;;;;;;23.43;45.99;97366.31;4231558;28;5700;-65
2022/05/27 12:30:31;;;;;;;;;;;;;;;23.45;45.80;97367.69;4231563;28;5753;-65
2022/05/27 12:32:35;;;;;;;;;;;;;;;23.47;45.85;97360.13;4230299;28;5696;-65
2022/05/27 12:34:43;;;;;;;;;;;;;;;23.48;45.68;97360.94;4218242;28;5827;-65
2022/05/27 12:36:46;;;;;;;;;;;;;;;23.50;45.57;97356.09;4227745;28;5908;-65
2022/05/27 12:38:53;;;;;;;;;;;;;;;23.50;45.47;97348.81;4213006;28;5819;-65
2022/05/27 12:41:00;;;;;;;;;;;;;;;23.51;45.71;97349.63;4200926;28;5803;-64
2022/05/27 12:43:12;;;;;;;;;;;;;;;23.54;45.21;97349.09;4197980;28;5783;-65
2022/05/27 12:45:24;;;;;;;;;;;;;;;23.55;45.08;97358.81;4197819;28;5798;-65
2022/05/27 12:47:31;;;;;;;;;;;;;;;23.57;45.06;97348.59;4197587;28;5794;-65
2022/05/27 12:49:36;;;;;;;;;;;;;;;23.58;45.11;97344.84;4203749;28;5821;-65
2022/05/27 12:51:46;;;;;;;;;;;;;;;23.62;44.70;97351.31;4204327;28;5696;-65
2022/05/27 12:53:51;;;;;;;;;;;;;;;23.62;44.78;97343.22;4204577;28;5707;-65
2022/05/27 13:00:57;;;;;;;;;;;;;;;23.68;44.37;97334.09;4217839;28;5749;-66
2022/05/27 13:03:00;;;;;;;;;;;;;;;23.72;44.17;97335.19;4210117;28;5799;-65
2022/05/27 13:05:05;;;;;;;;;;;;;;;23.77;44.36;97342.47;4206993;28;5681;-65
2022/05/27 13:07:11;;;;;;;;;;;;;;;23.78;44.23;97330.59;4207290;28;5754;-65
2022/05/27 13:09:38;;;;;;;;;;;;;;;23.79;44.21;97324.97;4220130;28;5096;-65
2022/05/27 13:11:46;;;;;;;;;;;;;;;23.79;44.13;97316.84;4204091;28;5791;-65
2022/05/27 13:13:50;;;;;;;;;;;;;;;23.81;44.11;97320.09;4201048;28;5700;-65
2022/05/27 13:16:26;;;;;;;;;;;;;;;23.86;43.83;97318.47;4212453;28;5922;-65
2022/05/27 13:18:49;;;;;;;;;;;;;;;23.87;43.54;97314.69;4217444;28;5770;-65
2022/05/27 13:20:56;;;;;;;;;;;;;;;23.87;43.63;97315.50;4217767;28;5877;-65
2022/05/27 13:23:10;;;;;;;;;;;;;;;23.89;43.33;97309.84;4217465;28;6619;-65
2022/05/27 13:25:26;;;;;;;;;;;;;;;23.90;43.31;97309.59;4217680;28;6503;-65
2022/05/27 13:27:32;;;;;;;;;;;;;;;23.89;43.49;97307.16;4217469;28;5761;-65
2022/05/27 13:29:44;;;;;;;;;;;;;;;23.92;42.95;97303.94;4217002;28;5762;-64
2022/05/27 13:31:51;;;;;;;;;;;;;;;23.92;43.08;97301.25;4214728;28;6508;-65
2022/05/27 13:34:04;;;;;;;;;;;;;;;23.95;42.74;97295.28;4217230;28;5928;-64
2022/05/27 13:36:19;;;;;;;;;;;;;;;23.97;42.49;97293.13;4217320;28;5769;-65
2022/05/27 13:38:27;;;;;;;;;;;;;;;23.95;42.98;97293.41;4215631;28;5781;-64
2022/05/27 13:40:32;;;;;;;;;;;;;;;23.96;42.87;97292.31;4226824;28;6405;-64
2022/05/27 13:42:38;;;;;;;;;;;;;;;23.99;42.90;97293.66;4234146;28;5777;-64
2022/05/27 13:44:42;;;;;;;;;;;;;;;24.02;42.75;97293.16;4220852;28;5873;-64
2022/05/27 13:46:49;;;;;;;;;;;;;;;24.04;42.22;97288.31;4216706;28;5754;-65
2022/05/27 13:48:57;;;;;;;;;;;;;;;24.06;42.37;97280.72;4216712;28;5718;-64
2022/05/27 13:51:09;;;;;;;;;;;;;;;24.09;42.61;97291.00;4217263;28;5739;-64
2022/05/27 13:53:20;;;;;;;;;;;;;;;24.11;42.38;97272.63;4198658;28;6456;-64
2022/05/27 13:55:29;;;;;;;;;;;;;;;24.12;42.49;97285.06;4217266;28;6580;-64
2022/05/27 13:57:35;;;;;;;;;;;;;;;24.14;41.89;97282.09;4217041;28;5658;-64
2022/05/27 13:59:42;;;;;;;;;;;;;;;24.14;42.38;97274.81;4216460;28;5722;-64
2022/05/27 14:01:48;;;;;;;;;;;;;;;24.16;42.14;97269.94;4216141;28;5729;-65
2022/05/27 14:04:03;;;;;;;;;;;;;;;24.16;41.85;97269.94;4198552;28;5802;-64
2022/05/27 14:06:07;;;;;;;;;;;;;;;24.15;41.92;97268.34;4198525;28;5861;-64
2022/05/27 14:08:10;;;;;;;;;;;;;;;24.17;42.23;97266.16;4216882;28;5722;-64
2022/05/27 14:10:21;;;;;;;;;;;;;;;24.19;41.88;97272.09;4216256;28;5878;-64
2022/05/27 14:12:31;;;;;;;;;;;;;;;24.21;41.91;97261.84;4216499;28;5616;-64
2022/05/27 14:14:42;;;;;;;;;;;;;;;24.22;41.33;97252.66;4216784;28;5723;-64
2022/05/27 14:16:45;;;;;;;;;;;;;;;24.24;41.20;97249.72;4216558;28;5795;-65
2022/05/27 14:18:48;;;;;;;;;;;;;;;24.25;41.34;97246.72;4216562;28;5839;-64
2022/05/27 14:23:18;;;;;;;;;;;;;;;24.30;41.06;97249.44;4216799;28;5072;-64
2022/05/27 14:25:26;;;;;;;;;;;;;;;24.31;40.59;97250.25;4216810;28;5801;-64
2022/05/27 14:27:33;;;;;;;;;;;;;;;24.30;40.74;97238.66;4216698;28;5701;-64
2022/05/27 14:29:38;;;;;;;;;;;;;;;24.31;40.52;97248.38;4216516;28;5732;-64
2022/05/27 14:31:43;;;;;;;;;;;;;;;24.34;40.56;97244.31;4221365;27;6125;-64
2022/05/27 14:33:49;;;;;;;;;;;;;;;24.36;40.11;97231.38;4229331;28;5699;-64
2022/05/27 14:35:54;;;;;;;;;;;;;;;24.39;40.18;97244.31;4231774;28;5704;-65
2022/05/27 14:38:04;;;;;;;;;;;;;;;24.42;39.73;97237.56;4233437;28;5695;-65
2022/05/27 14:40:11;;;;;;;;;;;;;;;24.44;39.64;97235.41;4225850;28;5722;-64
2022/05/27 14:42:17;;;;;;;;;;;;;;;24.47;39.83;97237.59;4226219;28;5726;-64
2022/05/27 14:44:28;;;;;;;;;;;;;;;24.50;39.34;97231.63;4227102;28;5703;-64
2022/05/27 14:46:33;;;;;;;;;;;;;;;24.48;39.39;97223.78;4218926;28;5715;-65
2022/05/27 14:48:38;;;;;;;;;;;;;;;24.49;39.25;97221.91;4219698;28;5750;-64
2022/05/27 14:50:41;;;;;;;;;;;;;;;24.49;39.25;97224.59;4233058;28;5667;-65
2022/05/27 14:52:52;;;;;;;;;;;;;;;24.53;39.06;97214.84;4232732;28;5684;-64
2022/05/27 14:55:02;;;;;;;;;;;;;;;24.54;38.33;97211.88;4233078;28;5754;-64
2022/05/27 14:57:15;;;;;;;;;;;;;;;24.55;38.33;97208.09;4232712;28;5758;-64
2022/05/27 14:59:28;;;;;;;;;;;;;;;24.55;38.51;97212.69;4233022;28;5743;-65
2022/05/27 15:01:36;;;;;;;;;;;;;;;24.54;38.10;97214.59;4214447;28;5786;-64
2022/05/27 15:03:40;;;;;;;;;;;;;;;24.55;38.43;97215.38;4233045;28;5851;-64
2022/05/27 15:05:43;;;;;;;;;;;;;;;24.56;38.35;97215.13;4233021;28;5700;-64
2022/05/27 15:07:49;;;;;;;;;;;;;;;24.60;38.01;97205.41;4233008;28;5675;-64
2022/05/27 15:10:00;;;;;;;;;;;;;;;24.63;37.71;97204.03;4232926;28;5812;-64
2022/05/27 15:12:19;;;;;;;;;;;;;;;24.63;37.80;97204.03;4231898;28;5699;-64
2022/05/27 15:14:26;;;;;;;;;;;;;;;24.62;38.20;97202.41;4229780;28;5757;-64
2022/05/27 15:16:34;;;;;;;;;;;;;;;24.63;37.75;97198.63;4231547;28;5824;-64
2022/05/27 15:18:45;;;;;;;;;;;;;;;24.63;38.02;97199.44;4217906;28;5825;-65
2022/05/27 15:20:56;;;;;;;;;;;;;;;24.63;37.69;97193.22;4215670;28;5726;-64
2022/05/27 15:23:01;;;;;;;;;;;;;;;24.64;37.78;97189.44;4215823;28;5714;-64
2022/05/27 15:25:07;;;;;;;;;;;;;;;24.65;38.11;97185.63;4215751;28;5721;-65
2022/05/27 15:34:17;;;;;;;;;;;;;;;24.77;37.67;97178.03;4231743;28;5759;-65
2022/05/27 15:36:21;;;;;;;;;;;;;;;24.80;38.05;97166.66;4224308;28;5714;-65
2022/05/27 15:38:27;;;;;;;;;;;;;;;24.81;37.89;97173.72;4231786;28;5818;-65
2022/05/27 15:40:31;;;;;;;;;;;;;;;24.80;37.80;97163.97;4221141;28;5700;-65
2022/05/27 15:42:45;;;;;;;;;;;;;;;24.81;37.92;97162.91;4213650;28;5793;-66
2022/05/27 15:44:49;;;;;;;;;;;;;;;24.83;38.00;97159.94;4213915;28;6621;-65
2022/05/27 15:46:52;;;;;;;;;;;;;;;24.82;38.57;97158.31;4229746;28;5676;-65
2022/05/27 15:48:56;;;;;;;;;;;;;;;24.84;38.66;97159.66;4209570;28;5789;-65
2022/05/27 15:51:00;;;;;;;;;;;;;;;24.85;38.46;97153.16;4232002;28;6990;-65
2022/05/27 15:53:03;;;;;;;;;;;;;;;24.86;38.69;97159.38;4230033;28;5708;-65
2022/05/27 15:55:07;;;;;;;;;;;;;;;24.88;38.34;97158.00;4223020;28;5714;-65
2022/05/27 15:57:11;;;;;;;;;;;;;;;24.89;38.80;97165.03;4196738;28;5807;-66
2022/05/27 15:59:14;;;;;;;;;;;;;;;24.92;39.01;97152.88;4225686;28;5800;-66
2022/05/27 16:01:19;;;;;;;;;;;;;;;24.92;38.77;97153.69;4229511;28;5748;-65
2022/05/27 16:03:24;;;;;;;;;;;;;;;24.95;38.87;97155.00;4217510;28;5722;-65
2022/05/27 16:05:28;;;;;;;;;;;;;;;24.98;38.56;97144.44;4229458;28;5771;-66
2022/05/27 16:07:31;;;;;;;;;;;;;;;25.03;39.02;97148.22;4231445;28;7663;-65
2022/05/27 16:09:34;;;;;;;;;;;;;;;25.05;39.10;97152.31;4231467;28;5699;-66
2022/05/27 16:11:37;;;;;;;;;;;;;;;25.10;39.20;97148.75;4213443;28;5797;-65
2022/05/27 16:13:40;;;;;;;;;;;;;;;25.15;39.24;97146.03;4213024;28;6405;-66
2022/05/27 16:17:50;;;;;;;;;;;;;;;25.19;38.99;97147.91;4231820;28;5801;-65
2022/05/27 16:18:10;;;;;;;;;;;;;;;25.25;38.84;97143.25;4230122;28;5740;-65
2022/05/27 16:20:13;;;;;;;;;;;;;;;25.30;39.21;97142.44;4216611;28;5824;-65
2022/05/27 16:22:17;;;;;;;;;;;;;;;25.32;39.13;97153.78;4214787;28;5731;-66
2022/05/27 16:24:19;;;;;;;;;;;;;;;25.34;38.86;97151.59;4230585;28;5808;-65
2022/05/27 16:26:22;;;;;;;;;;;;;;;25.34;38.77;97138.88;4213229;28;5770;-65
2022/05/27 16:28:25;;;;;;;;;;;;;;;25.35;38.84;97140.50;4220253;28;5793;-65
2022/05/27 16:30:31;;;;;;;;;;;;;;;25.37;38.88;97146.47;4214919;28;5711;-66
2022/05/27 16:32:35;;;;;;;;;;;;;;;25.39;38.74;97159.72;4211804;28;5802;-66
2022/05/27 16:34:39;;;;;;;;;;;;;;;25.37;38.82;97149.19;4231906;28;5731;-65